createdAt,value
2023-05-17T00:01:05.549Z,14.30
2023-05-17T00:03:36.233Z,14.30
2023-05-17T00:06:05.522Z,14.20
2023-05-17T00:08:34.646Z,14.20
2023-05-17T00:11:03.775Z,14.20
2023-05-17T00:13:32.806Z,14.20
2023-05-17T00:16:01.884Z,14.20
2023-05-17T00:18:31.696Z,14.20
2023-05-17T00:21:02.353Z,14.20
2023-05-17T00:23:31.404Z,14.10
2023-05-17T00:26:00.498Z,14.10
2023-05-17T00:28:29.534Z,14.10
2023-05-17T00:30:59.510Z,14.10
2023-05-17T00:33:28.594Z,14.10
2023-05-17T00:35:57.680Z,14.00
2023-05-17T00:38:28.162Z,14.00
2023-05-17T00:40:57.196Z,14.00
2023-05-17T00:43:26.588Z,14.00
2023-05-17T00:45:55.643Z,13.90
2023-05-17T00:48:26.573Z,13.90
2023-05-17T00:50:56.919Z,13.80
2023-05-17T00:53:28.829Z,13.80
2023-05-17T00:55:58.156Z,13.80
2023-05-17T00:58:27.423Z,13.80
2023-05-17T01:00:56.911Z,13.70
2023-05-17T01:03:26.094Z,13.70
2023-05-17T01:05:55.296Z,13.60
2023-05-17T01:08:24.419Z,13.60
2023-05-17T01:11:08.327Z,13.60
2023-05-17T01:13:46.854Z,13.60
2023-05-17T01:16:20.260Z,13.60
2023-05-17T01:18:55.748Z,13.60
2023-05-17T01:21:37.402Z,13.50
2023-05-17T01:24:23.029Z,13.50
2023-05-17T01:26:55.814Z,13.50
2023-05-17T01:29:27.748Z,13.50
2023-05-17T01:31:58.879Z,13.40
2023-05-17T01:34:28.427Z,13.40
2023-05-17T01:36:58.846Z,13.40
2023-05-17T01:39:28.308Z,13.40
2023-05-17T01:42:06.511Z,13.40
2023-05-17T01:44:43.716Z,13.40
2023-05-17T01:47:22.242Z,13.30
2023-05-17T01:49:55.258Z,13.20
2023-05-17T01:52:31.813Z,13.30
2023-05-17T01:55:10.249Z,13.20
2023-05-17T01:57:44.400Z,13.20
2023-05-17T02:00:16.223Z,13.20
2023-05-17T02:02:46.308Z,13.20
2023-05-17T02:05:15.818Z,13.20
2023-05-17T02:07:45.001Z,13.20
2023-05-17T02:10:14.642Z,13.20
2023-05-17T02:12:46.790Z,13.30
2023-05-17T02:15:16.751Z,13.30
2023-05-17T02:17:46.079Z,13.30
2023-05-17T02:20:17.075Z,13.20
2023-05-17T02:22:46.474Z,13.30
2023-05-17T02:25:15.526Z,13.30
2023-05-17T02:27:46.080Z,13.20
2023-05-17T02:30:18.170Z,13.20
2023-05-17T02:32:47.588Z,13.20
2023-05-17T02:35:16.755Z,13.20
2023-05-17T02:37:45.880Z,13.10
2023-05-17T02:40:15.396Z,13.20
2023-05-17T02:42:45.898Z,13.20
2023-05-17T02:45:14.981Z,13.20
2023-05-17T02:47:44.154Z,13.20
2023-05-17T02:50:13.329Z,13.10
2023-05-17T02:52:42.485Z,13.10
2023-05-17T02:55:11.768Z,13.10
2023-05-17T02:57:40.937Z,13.00
2023-05-17T03:00:12.490Z,13.00
2023-05-17T03:02:41.673Z,13.00
2023-05-17T03:05:11.288Z,13.00
2023-05-17T03:07:44.473Z,13.00
2023-05-17T03:10:13.740Z,12.90
2023-05-17T03:12:46.370Z,12.90
2023-05-17T03:15:19.251Z,12.80
2023-05-17T03:17:48.761Z,12.80
2023-05-17T03:20:20.007Z,12.80
2023-05-17T03:22:50.619Z,12.80
2023-05-17T03:25:19.879Z,12.80
2023-05-17T03:27:49.088Z,12.80
2023-05-17T03:30:19.984Z,12.70
2023-05-17T03:32:51.581Z,12.70
2023-05-17T03:35:21.315Z,12.70
2023-05-17T03:37:54.255Z,12.70
2023-05-17T03:40:24.218Z,12.70
2023-05-17T03:42:54.265Z,12.70
2023-05-17T03:45:25.070Z,12.70
2023-05-17T03:47:54.196Z,12.70
2023-05-17T03:50:23.478Z,12.70
2023-05-17T03:52:53.195Z,12.70
2023-05-17T03:55:22.483Z,12.70
2023-05-17T03:57:51.644Z,12.70
2023-05-17T04:00:22.481Z,12.70
2023-05-17T04:02:56.061Z,12.60
2023-05-17T04:05:25.224Z,12.60
2023-05-17T04:07:55.703Z,12.60
2023-05-17T04:10:25.128Z,12.60
2023-05-17T04:12:54.192Z,12.60
2023-05-17T04:15:23.393Z,12.60
2023-05-17T04:17:52.674Z,12.50
2023-05-17T04:20:23.246Z,12.50
2023-05-17T04:22:52.396Z,12.50
2023-05-17T04:25:22.602Z,12.50
2023-05-17T04:27:51.888Z,12.60
2023-05-17T04:30:24.143Z,12.60
2023-05-17T04:32:53.301Z,12.60
2023-05-17T04:35:23.867Z,12.50
2023-05-17T04:37:55.249Z,12.50
2023-05-17T04:40:24.966Z,12.50
2023-05-17T04:42:54.163Z,12.50
2023-05-17T04:45:23.704Z,12.50
2023-05-17T04:47:53.791Z,12.40
2023-05-17T04:50:25.086Z,12.40
2023-05-17T04:52:54.224Z,12.50
2023-05-17T04:55:23.665Z,12.50
2023-05-17T04:57:52.838Z,12.50
2023-05-17T05:00:24.033Z,12.50
2023-05-17T05:03:00.879Z,12.50
2023-05-17T05:05:31.494Z,12.50
2023-05-17T05:08:00.814Z,12.50
2023-05-17T05:10:30.589Z,12.60
2023-05-17T05:12:59.918Z,12.60
2023-05-17T05:15:29.971Z,12.60
2023-05-17T05:18:01.650Z,12.70
2023-05-17T05:20:33.906Z,12.70
2023-05-17T05:23:06.144Z,12.70
2023-05-17T05:25:36.583Z,12.80
2023-05-17T05:28:06.093Z,12.80
2023-05-17T05:30:36.938Z,12.90
2023-05-17T05:33:07.059Z,12.90
2023-05-17T05:35:38.717Z,12.90
2023-05-17T05:38:07.823Z,12.90
2023-05-17T05:40:37.829Z,13.00
2023-05-17T05:43:06.961Z,13.00
2023-05-17T05:45:36.199Z,13.00
2023-05-17T05:48:08.894Z,13.10
2023-05-17T05:50:39.718Z,13.10
2023-05-17T05:53:18.692Z,13.20
2023-05-17T05:55:52.648Z,13.30
2023-05-17T05:58:22.721Z,13.30
2023-05-17T06:00:52.673Z,13.40
2023-05-17T06:03:21.949Z,13.40
2023-05-17T06:05:52.491Z,13.50
2023-05-17T06:08:21.580Z,13.60
2023-05-17T06:10:50.728Z,13.70
2023-05-17T06:13:19.778Z,13.70
2023-05-17T06:15:48.845Z,13.80
2023-05-17T06:18:18.075Z,13.80
2023-05-17T06:20:48.198Z,14.00
2023-05-17T06:23:18.686Z,14.10
2023-05-17T06:25:47.808Z,14.10
2023-05-17T06:28:16.891Z,14.20
2023-05-17T06:30:48.188Z,14.20
2023-05-17T06:33:17.365Z,14.40
2023-05-17T06:35:56.309Z,14.50
2023-05-17T06:38:28.076Z,14.70
2023-05-17T06:40:58.563Z,14.90
2023-05-17T06:43:27.745Z,15.00
2023-05-17T06:45:56.808Z,15.20
2023-05-17T06:48:26.180Z,15.30
2023-05-17T06:50:55.455Z,15.50
2023-05-17T06:53:24.522Z,15.60
2023-05-17T06:55:55.135Z,15.80
2023-05-17T06:58:24.197Z,15.90
2023-05-17T07:00:53.637Z,16.00
2023-05-17T07:03:23.058Z,16.10
2023-05-17T07:05:52.388Z,16.20
2023-05-17T07:08:21.584Z,16.30
2023-05-17T07:10:56.425Z,16.40
2023-05-17T07:13:26.622Z,16.50
2023-05-17T07:15:56.269Z,16.60
2023-05-17T07:18:25.462Z,16.70
2023-05-17T07:20:54.676Z,16.80
2023-05-17T07:23:23.919Z,16.90
2023-05-17T07:25:54.411Z,17.00
2023-05-17T07:28:23.512Z,17.20
2023-05-17T07:30:52.669Z,17.20
2023-05-17T07:33:21.756Z,17.30
2023-05-17T07:35:50.948Z,17.40
2023-05-17T07:38:20.053Z,17.40
2023-05-17T07:40:49.193Z,17.50
2023-05-17T07:43:22.633Z,17.60
2023-05-17T07:45:51.716Z,17.70
2023-05-17T07:48:21.027Z,17.70
2023-05-17T07:50:50.233Z,17.70
2023-05-17T07:53:19.351Z,17.80
2023-05-17T07:55:48.417Z,17.90
2023-05-17T07:58:17.465Z,17.90
2023-05-17T08:00:50.711Z,18.00
2023-05-17T08:03:19.756Z,18.10
2023-05-17T08:05:48.907Z,18.10
2023-05-17T08:08:17.953Z,18.30
2023-05-17T08:10:47.350Z,18.40
2023-05-17T08:13:16.486Z,18.40
2023-05-17T08:15:45.591Z,18.50
2023-05-17T08:18:16.191Z,18.60
2023-05-17T08:20:46.638Z,18.60
2023-05-17T08:23:15.669Z,18.60
2023-05-17T08:25:44.798Z,18.60
2023-05-17T08:28:13.854Z,18.60
2023-05-17T08:30:43.009Z,18.60
2023-05-17T08:33:12.292Z,18.50
2023-05-17T08:35:42.850Z,18.50
2023-05-17T08:38:11.954Z,18.40
2023-05-17T08:40:41.394Z,18.30
2023-05-17T08:43:13.034Z,18.10
2023-05-17T08:45:42.293Z,18.00
2023-05-17T08:48:11.524Z,17.90
2023-05-17T08:50:42.864Z,17.90
2023-05-17T08:53:13.719Z,17.90
2023-05-17T08:55:47.335Z,17.90
2023-05-17T08:58:17.985Z,18.00
2023-05-17T09:00:47.926Z,18.00
2023-05-17T09:03:19.897Z,18.10
2023-05-17T09:05:52.841Z,18.10
2023-05-17T09:08:23.369Z,18.10
2023-05-17T09:10:52.418Z,18.10
2023-05-17T09:13:21.610Z,18.10
2023-05-17T09:15:50.771Z,18.10
2023-05-17T09:18:20.307Z,18.00
2023-05-17T09:20:53.180Z,18.00
2023-05-17T09:23:23.451Z,18.00
2023-05-17T09:25:52.639Z,18.10
2023-05-17T09:28:21.745Z,18.20
2023-05-17T09:30:51.366Z,18.30
2023-05-17T09:33:24.465Z,18.30
2023-05-17T09:35:55.043Z,18.40
2023-05-17T09:38:27.706Z,18.40
2023-05-17T09:40:57.025Z,18.30
2023-05-17T09:43:27.052Z,18.40
2023-05-17T09:45:59.898Z,18.50
2023-05-17T09:48:29.126Z,18.50
2023-05-17T09:50:59.854Z,18.50
2023-05-17T09:53:30.095Z,18.50
2023-05-17T09:56:00.545Z,18.50
2023-05-17T09:58:32.874Z,18.50
2023-05-17T10:01:03.782Z,18.50
2023-05-17T10:03:36.166Z,18.60
2023-05-17T10:06:13.409Z,18.70
2023-05-17T10:08:53.667Z,18.90
2023-05-17T10:11:28.054Z,18.90
2023-05-17T10:14:06.634Z,18.90
2023-05-17T10:16:35.935Z,18.70
2023-05-17T10:19:05.270Z,18.80
2023-05-17T10:21:37.021Z,18.80
2023-05-17T10:24:08.077Z,18.90
2023-05-17T10:26:38.652Z,19.00
2023-05-17T10:29:08.613Z,19.10
2023-05-17T10:31:37.668Z,19.10
2023-05-17T10:34:07.592Z,19.10
2023-05-17T10:36:39.299Z,19.10
2023-05-17T10:39:09.153Z,19.10
2023-05-17T10:41:42.114Z,19.20
2023-05-17T10:44:15.098Z,19.00
2023-05-17T10:46:53.309Z,19.00
2023-05-17T10:49:25.065Z,19.00
2023-05-17T10:51:56.088Z,18.90
2023-05-17T10:54:36.052Z,18.80
2023-05-17T10:57:08.727Z,18.80
2023-05-17T10:59:59.838Z,18.90
2023-05-17T11:02:43.511Z,18.90
2023-05-17T11:05:25.794Z,19.00
2023-05-17T11:08:14.352Z,19.00
2023-05-17T11:11:11.520Z,19.00
2023-05-17T11:13:48.235Z,19.00
2023-05-17T11:16:18.405Z,18.90
2023-05-17T11:18:48.865Z,18.90
2023-05-17T11:21:18.504Z,18.70
2023-05-17T11:23:50.253Z,18.60
2023-05-17T11:26:23.799Z,18.50
2023-05-17T11:29:02.740Z,18.50
2023-05-17T11:31:33.550Z,18.40
2023-05-17T11:34:04.498Z,18.30
2023-05-17T11:36:49.748Z,18.10
2023-05-17T11:39:22.163Z,18.10
2023-05-17T11:41:53.110Z,18.00
2023-05-17T11:44:28.602Z,17.90
2023-05-17T11:47:04.750Z,17.80
2023-05-17T11:49:38.177Z,17.80
2023-05-17T11:52:08.619Z,17.70
2023-05-17T11:54:40.309Z,17.60
2023-05-17T11:57:10.618Z,17.60
2023-05-17T11:59:40.594Z,17.60
2023-05-17T12:02:10.076Z,17.50
2023-05-17T12:04:40.220Z,17.50
2023-05-17T12:07:11.044Z,17.50
2023-05-17T12:09:41.817Z,17.50
2023-05-17T12:12:10.954Z,17.50
2023-05-17T12:14:40.158Z,17.50
2023-05-17T12:17:10.421Z,17.60
2023-05-17T12:19:39.657Z,17.70
2023-05-17T12:22:12.478Z,17.70
2023-05-17T12:24:44.358Z,17.80
2023-05-17T12:27:13.440Z,18.00
2023-05-17T12:29:42.568Z,18.20
2023-05-17T12:32:12.201Z,18.30
2023-05-17T12:34:41.962Z,18.30
2023-05-17T12:37:13.318Z,18.30
2023-05-17T12:39:43.717Z,18.30
2023-05-17T12:42:12.944Z,18.30
2023-05-17T12:44:42.026Z,18.40
2023-05-17T12:47:11.842Z,18.60
2023-05-17T12:49:41.347Z,18.60
2023-05-17T12:52:11.931Z,18.60
2023-05-17T12:54:41.630Z,18.70
2023-05-17T12:57:16.174Z,18.70
2023-05-17T12:59:49.915Z,18.60
2023-05-17T13:02:20.921Z,18.70
2023-05-17T13:04:50.236Z,18.80
2023-05-17T13:07:24.568Z,18.90
2023-05-17T13:09:53.711Z,18.80
2023-05-17T13:12:26.110Z,18.70
2023-05-17T13:14:55.565Z,18.70
2023-05-17T13:17:27.622Z,18.70
2023-05-17T13:19:58.388Z,18.60
2023-05-17T13:22:27.929Z,18.60
2023-05-17T13:24:57.036Z,18.60
2023-05-17T13:27:27.502Z,18.50
2023-05-17T13:29:56.590Z,18.50
2023-05-17T13:32:26.143Z,18.40
2023-05-17T13:34:55.340Z,18.30
2023-05-17T13:37:24.402Z,18.30
2023-05-17T13:39:54.866Z,18.20
2023-05-17T13:42:24.577Z,18.20
2023-05-17T13:44:55.063Z,18.20
2023-05-17T13:47:24.389Z,18.10
2023-05-17T13:49:53.591Z,18.10
2023-05-17T13:52:23.260Z,18.10
2023-05-17T13:54:52.454Z,18.00
2023-05-17T13:57:21.469Z,18.00
2023-05-17T13:59:50.685Z,17.90
2023-05-17T14:02:21.141Z,17.90
2023-05-17T14:04:50.765Z,17.90
2023-05-17T14:07:19.847Z,17.90
2023-05-17T14:09:48.961Z,17.80
2023-05-17T14:12:18.104Z,17.80
2023-05-17T14:14:47.237Z,17.80
2023-05-17T14:17:16.673Z,17.90
2023-05-17T14:19:47.343Z,17.80
2023-05-17T14:22:16.647Z,17.70
2023-05-17T14:24:45.814Z,17.70
2023-05-17T14:27:14.910Z,17.60
2023-05-17T14:29:43.994Z,17.60
2023-05-17T14:32:14.210Z,17.60
2023-05-17T14:34:43.345Z,17.60
2023-05-17T14:37:14.846Z,17.50
2023-05-17T14:39:49.480Z,17.40
2023-05-17T14:42:27.991Z,17.40
2023-05-17T14:44:57.081Z,17.30
2023-05-17T14:47:26.335Z,17.30
2023-05-17T14:49:55.483Z,17.30
2023-05-17T14:52:27.796Z,17.30
2023-05-17T14:54:57.008Z,17.20
2023-05-17T14:57:26.099Z,17.20
2023-05-17T14:59:55.142Z,17.10
2023-05-17T15:02:24.368Z,17.20
2023-05-17T15:04:53.704Z,17.20
2023-05-17T15:07:22.880Z,17.20
2023-05-17T15:09:53.409Z,17.20
2023-05-17T15:12:23.014Z,17.20
2023-05-17T15:14:52.487Z,17.30
2023-05-17T15:17:21.755Z,17.40
2023-05-17T15:19:51.488Z,17.50
2023-05-17T15:22:20.873Z,17.60
2023-05-17T15:24:50.123Z,17.70
2023-05-17T15:27:20.543Z,17.60
2023-05-17T15:29:49.664Z,17.60
2023-05-17T15:32:18.726Z,17.50
2023-05-17T15:34:47.846Z,17.40
2023-05-17T15:37:16.924Z,17.40
2023-05-17T15:39:46.138Z,17.50
2023-05-17T15:42:15.194Z,17.50
2023-05-17T15:44:45.691Z,17.50
2023-05-17T15:47:14.740Z,17.60
2023-05-17T15:49:43.787Z,17.60
2023-05-17T15:52:13.000Z,17.70
2023-05-17T15:54:42.505Z,17.80
2023-05-17T15:57:11.568Z,17.80
2023-05-17T15:59:40.644Z,17.80
2023-05-17T16:02:11.153Z,17.80
2023-05-17T16:04:40.338Z,17.80
2023-05-17T16:07:09.422Z,17.90
2023-05-17T16:09:38.714Z,17.90
2023-05-17T16:12:08.322Z,17.90
2023-05-17T16:14:39.121Z,17.90
2023-05-17T16:17:08.244Z,17.90
2023-05-17T16:19:39.740Z,17.80
2023-05-17T16:22:09.649Z,17.80
2023-05-17T16:24:38.832Z,17.70
2023-05-17T16:27:08.503Z,17.60
2023-05-17T16:29:40.639Z,17.60
2023-05-17T16:32:12.139Z,17.50
2023-05-17T16:34:42.712Z,17.50
2023-05-17T16:37:12.303Z,17.50
2023-05-17T16:39:41.886Z,17.60
2023-05-17T16:42:11.002Z,17.60
2023-05-17T16:44:40.188Z,17.50
2023-05-17T16:47:09.360Z,17.60
2023-05-17T16:49:38.783Z,17.60
2023-05-17T16:52:10.146Z,17.60
2023-05-17T16:54:40.313Z,17.60
2023-05-17T16:57:09.543Z,17.70
2023-05-17T16:59:39.002Z,17.60
2023-05-17T17:02:08.395Z,17.60
2023-05-17T17:04:37.713Z,17.60
2023-05-17T17:07:08.348Z,17.60
2023-05-17T17:09:37.471Z,17.60
2023-05-17T17:12:16.245Z,17.70
2023-05-17T17:14:52.385Z,17.70
2023-05-17T17:17:21.512Z,17.70
2023-05-17T17:19:50.721Z,17.60
2023-05-17T17:22:21.261Z,17.60
2023-05-17T17:24:50.421Z,17.50
2023-05-17T17:27:19.624Z,17.40
2023-05-17T17:29:48.847Z,17.30
2023-05-17T17:32:18.149Z,17.30
2023-05-17T17:34:47.378Z,17.30
2023-05-17T17:37:16.450Z,17.30
2023-05-17T17:39:47.019Z,17.20
2023-05-17T17:42:16.251Z,17.20
2023-05-17T17:44:45.439Z,17.10
2023-05-17T17:47:14.680Z,17.10
2023-05-17T17:49:43.941Z,17.00
2023-05-17T17:52:13.026Z,16.90
2023-05-17T17:54:50.395Z,17.00
2023-05-17T17:57:22.861Z,17.00
2023-05-17T17:59:52.154Z,17.00
2023-05-17T18:02:21.196Z,17.00
2023-05-17T18:04:50.395Z,17.00
2023-05-17T18:07:19.531Z,17.00
2023-05-17T18:09:48.683Z,17.00
2023-05-17T18:12:17.830Z,17.10
2023-05-17T18:14:48.327Z,17.10
2023-05-17T18:17:17.401Z,17.20
2023-05-17T18:19:48.521Z,17.20
2023-05-17T18:22:19.069Z,17.20
2023-05-17T18:24:48.923Z,17.20
2023-05-17T18:27:18.241Z,17.20
2023-05-17T18:29:48.860Z,17.30
2023-05-17T18:32:18.120Z,17.30
2023-05-17T18:34:47.320Z,17.30
2023-05-17T18:37:17.670Z,17.30
2023-05-17T18:39:49.805Z,17.40
2023-05-17T18:42:19.596Z,17.40
2023-05-17T18:44:50.289Z,17.50
2023-05-17T18:47:19.429Z,17.40
2023-05-17T18:49:49.247Z,17.50
2023-05-17T18:52:18.318Z,17.50
2023-05-17T18:54:47.782Z,17.60
2023-05-17T18:57:16.833Z,17.60
2023-05-17T18:59:45.912Z,17.70
2023-05-17T19:02:16.766Z,17.70
2023-05-17T19:04:46.390Z,17.80
2023-05-17T19:07:15.472Z,17.80
2023-05-17T19:09:44.699Z,17.80
2023-05-17T19:12:13.896Z,17.90
2023-05-17T19:14:43.018Z,17.90
2023-05-17T19:17:12.204Z,17.90
2023-05-17T19:19:42.776Z,17.90
2023-05-17T19:22:11.878Z,17.90
2023-05-17T19:24:41.001Z,17.90
2023-05-17T19:27:11.118Z,17.90
2023-05-17T19:29:40.289Z,17.90
2023-05-17T19:32:09.725Z,17.90
2023-05-17T19:34:38.860Z,17.90
2023-05-17T19:37:09.450Z,17.90
2023-05-17T19:39:38.592Z,17.90
2023-05-17T19:42:07.841Z,17.90
2023-05-17T19:44:37.001Z,17.80
2023-05-17T19:47:07.728Z,17.80
2023-05-17T19:49:36.815Z,17.80
2023-05-17T19:52:06.553Z,17.80
2023-05-17T19:54:38.086Z,17.80
2023-05-17T19:57:08.041Z,17.80
2023-05-17T19:59:37.096Z,17.70
2023-05-17T20:02:06.717Z,17.70
2023-05-17T20:04:35.969Z,17.70
2023-05-17T20:07:05.026Z,17.70
2023-05-17T20:09:34.163Z,17.60
2023-05-17T20:12:05.042Z,17.60
2023-05-17T20:14:34.173Z,17.60
2023-05-17T20:17:03.367Z,17.60
2023-05-17T20:19:32.685Z,17.60
2023-05-17T20:22:02.526Z,17.50
2023-05-17T20:24:33.611Z,17.50
2023-05-17T20:27:04.840Z,17.50
2023-05-17T20:29:33.918Z,17.50
2023-05-17T20:32:03.230Z,17.50
2023-05-17T20:34:32.331Z,17.40
2023-05-17T20:37:01.452Z,17.40
2023-05-17T20:39:31.181Z,17.40
2023-05-17T20:42:01.346Z,17.40
2023-05-17T20:44:33.355Z,17.30
2023-05-17T20:47:02.500Z,17.30
2023-05-17T20:49:31.979Z,17.30
2023-05-17T20:52:03.497Z,17.30
2023-05-17T20:54:32.671Z,17.30
2023-05-17T20:57:02.096Z,17.30
2023-05-17T20:59:32.742Z,17.30
2023-05-17T21:02:02.912Z,17.20
2023-05-17T21:04:31.974Z,17.20
2023-05-17T21:07:01.114Z,17.20
2023-05-17T21:09:30.284Z,17.20
2023-05-17T21:11:59.428Z,17.10
2023-05-17T21:14:29.144Z,17.10
2023-05-17T21:16:59.621Z,17.10
2023-05-17T21:19:28.704Z,17.10
2023-05-17T21:21:57.787Z,17.10
2023-05-17T21:24:26.879Z,17.00
2023-05-17T21:26:55.971Z,17.00
2023-05-17T21:29:25.144Z,17.00
2023-05-17T21:31:54.298Z,17.00
2023-05-17T21:34:24.858Z,16.90
2023-05-17T21:36:54.883Z,16.90
2023-05-17T21:39:23.986Z,16.90
2023-05-17T21:41:53.046Z,16.90
2023-05-17T21:44:22.163Z,16.80
2023-05-17T21:46:51.270Z,16.80
2023-05-17T21:49:20.407Z,16.80
2023-05-17T21:51:50.867Z,16.80
2023-05-17T21:54:20.834Z,16.70
2023-05-17T21:56:49.942Z,16.70
2023-05-17T21:59:19.076Z,16.70
2023-05-17T22:01:48.258Z,16.60
2023-05-17T22:04:17.430Z,16.60
2023-05-17T22:06:46.592Z,16.60
2023-05-17T22:09:17.080Z,16.50
2023-05-17T22:11:46.293Z,16.50
2023-05-17T22:14:15.432Z,16.50
2023-05-17T22:16:44.596Z,16.50
2023-05-17T22:19:13.843Z,16.40
2023-05-17T22:21:42.998Z,16.40
2023-05-17T22:24:12.092Z,16.40
2023-05-17T22:26:42.826Z,16.30
2023-05-17T22:29:11.917Z,16.30
2023-05-17T22:31:41.053Z,16.30
2023-05-17T22:34:10.294Z,16.30
2023-05-17T22:36:42.253Z,16.20
2023-05-17T22:39:11.360Z,16.20
2023-05-17T22:41:40.635Z,16.10
2023-05-17T22:44:11.217Z,16.10
2023-05-17T22:46:42.106Z,16.10
2023-05-17T22:49:11.396Z,16.00
2023-05-17T22:51:40.521Z,16.00
2023-05-17T22:54:09.722Z,15.90
2023-05-17T22:56:38.761Z,15.90
2023-05-17T22:59:07.940Z,15.90
2023-05-17T23:01:38.434Z,15.90
2023-05-17T23:04:07.722Z,15.90
2023-05-17T23:06:36.835Z,15.80
2023-05-17T23:09:06.192Z,15.80
2023-05-17T23:11:35.919Z,15.80
2023-05-17T23:14:05.955Z,15.70
2023-05-17T23:16:36.152Z,15.70
2023-05-17T23:19:06.651Z,15.70
2023-05-17T23:21:35.794Z,15.70
2023-05-17T23:24:04.903Z,15.70
2023-05-17T23:26:34.137Z,15.70
2023-05-17T23:29:05.501Z,15.60
2023-05-17T23:31:34.987Z,15.60
2023-05-17T23:34:04.086Z,15.60
2023-05-17T23:36:34.687Z,15.50
2023-05-17T23:39:03.858Z,15.50
2023-05-17T23:41:33.459Z,15.50
2023-05-17T23:44:02.496Z,15.50
2023-05-17T23:46:31.592Z,15.50
2023-05-17T23:49:02.492Z,15.50
2023-05-17T23:51:33.278Z,15.50
2023-05-17T23:54:03.874Z,15.50
2023-05-17T23:56:32.908Z,15.50
2023-05-17T23:59:02.069Z,15.50
